Impacts METAR Board
IDs:

KBAZ - New Braunfels Muni, TX, US

Updated at: 0300 UTC 06 Dec 2019
Potential Impact None Slight Moderate High
Time 05/15Z 05/16Z 05/17Z 05/18Z 05/19Z 05/20Z 05/21Z 05/22Z 05/23Z 06/00Z 06/01Z 06/02Z 06/03Z
Temp56 59 61 67 67 70 72 73 71 69 64 59 58
Dewpt56 58 60 61 60 61 61 62 61 60 60 56 57
Altim30.04 30.06 30.06 30.03 30.00 29.97 29.95 29.94 29.94 29.94 29.96 29.97 29.98
VIS0.25 0.5 2 10 10 10 10 10 10 10 10 8 6
CIG2 2 2 16 12 15 -- -- -- -- -- -- --
CoverOVXOVXOVCOVCOVCBKNFEWCLRCLRCLRCLRCLRCLR
FltCatLIFRLIFRLIFRMVFRMVFRMVFRVFRVFRVFRVFRVFRVFRVFR
WXFGFGBR------------------BR
WDir18020020022022023021021021024025000
WSpd3 3 7 8 13 12 12 8 5 4 5 0 0
WGst-- -- -- -- -- -- -- -- -- -- -- -- --
Raw hourly METARs
KBAZ 051451Z AUTO 18003KT M1/4SM FG VV002 13/13 A3004 RMK AO2 SLP171 T01330133 53011
KBAZ 051551Z AUTO 20003KT 1/2SM FG VV002 15/14 A3006 RMK AO2 SLP178 T01500144
KBAZ 051700Z AUTO 20007KT 2SM BR OVC002 16/16 A3006 RMK AO2 VIS 1 1/4V3 T01610156
KBAZ 051759Z AUTO 22008KT 10SM SCT009 OVC016 19/16 A3003 RMK AO2 T01940161
KBAZ 051851Z AUTO 22013KT 10SM OVC012 19/16 A3000 RMK AO2 SLP154 T01940156
KBAZ 051951Z AUTO 23012KT 10SM BKN015 21/16 A2997 RMK AO2 SLP144 T02110161
KBAZ 052051Z AUTO 21012KT 10SM FEW017 22/16 A2995 RMK AO2 SLP138 T02220161 56028
KBAZ 052151Z AUTO 21008KT 10SM CLR 23/17 A2994 RMK AO2 SLP133 T02280167
KBAZ 052251Z AUTO 21005KT 10SM CLR 22/16 A2994 RMK AO2 SLP134 T02170161
KBAZ 052351Z AUTO 24004KT 10SM CLR 21/16 A2994 RMK AO2 SLP136 T02060156 10228 20189 55002
KBAZ 060051Z AUTO 25005KT 10SM CLR 18/16 A2996 RMK AO2 SLP140 T01780156
KBAZ 060151Z AUTO 00000KT 8SM CLR 15/13 A2997 RMK AO2 SLP145 T01500133
KBAZ 060251Z AUTO 00000KT 6SM BR CLR 14/14 A2998 RMK AO2 SLP151 T01440139 53013